Time;durP1;ratioP1;P1;durP2;ratioP2;P2;SDS_P1;SDS_P2;PMS_P1;PMS_P2;Temp;Humidity;BMP_temperature;BMP_pressure;BME280_temperature;BME280_humidity;BME280_pressure;Samples;Min_cycle;Max_cycle;Signal;HPM_P1;HPM_P2
2022/01/14 00:09:05;;;;;;;16.6;22.1;;;;;;;4.4;73.1;99840;;;;
2022/01/14 00:18:57;;;;;;;16.6;22.1;;;;;;;4.4;72.9;99840;;;;
2022/01/14 00:39:57;;;;;;;15.7;20;;;;;;;4.2;73.4;99850;;;;
2022/01/14 00:49:57;;;;;;;15.7;20;;;;;;;4.1;73.8;99850;;;;
2022/01/14 01:00:57;;;;;;;15.7;20;;;;;;;4.1;73.5;99870;;;;
2022/01/14 01:12:08;;;;;;;16.2;19.3;;;;;;;4;73.3;99890;;;;
2022/01/14 01:22:57;;;;;;;16.2;19.3;;;;;;;3.9;74.4;99850;;;;
2022/01/14 01:32:57;;;;;;;17.1;20.4;;;;;;;3.9;74;99820;;;;
2022/01/14 01:43:57;;;;;;;17.1;20.4;;;;;;;3.8;74.2;99840;;;;
2022/01/14 01:54:57;;;;;;;17.1;20.4;;;;;;;3.8;74.6;99830;;;;
2022/01/14 02:05:57;;;;;;;19.1;22.9;;;;;;;3.7;74.4;99850;;;;
2022/01/14 02:17:14;;;;;;;19.1;22.9;;;;;;;3.5;75.4;99830;;;;
2022/01/14 02:27:57;;;;;;;19.1;22.9;;;;;;;3.4;75.6;99790;;;;
2022/01/14 02:37:57;;;;;;;19.8;24.7;;;;;;;3.5;75.2;99770;;;;
2022/01/14 02:47:57;;;;;;;19.8;24.7;;;;;;;3.5;75.1;99770;;;;
2022/01/14 02:57:57;;;;;;;19.8;24.7;;;;;;;3.5;75;99760;;;;
2022/01/14 03:08:57;;;;;;;18;22.5;;;;;;;3.3;75.4;99770;;;;
2022/01/14 03:19:06;;;;;;;18;22.5;;;;;;;3.2;75.8;99750;;;;
2022/01/14 03:29:57;;;;;;;18;22.5;;;;;;;3.2;76;99740;;;;
2022/01/14 03:39:57;;;;;;;20.1;23.7;;;;;;;3.2;76.1;99740;;;;
2022/01/14 03:49:57;;;;;;;20.1;23.7;;;;;;;3.2;75.9;99740;;;;
2022/01/14 04:00:57;;;;;;;19.3;21.9;;;;;;;3.2;75.8;99710;;;;
2022/01/14 04:10:59;;;;;;;19.3;21.9;;;;;;;3.2;75.7;99720;;;;
2022/01/14 04:21:57;;;;;;;19.3;21.9;;;;;;;3.1;75.7;99710;;;;
2022/01/14 04:32:58;;;;;;;18.6;23.7;;;;;;;3.2;75.5;99680;;;;
2022/01/14 04:43:57;;;;;;;18.6;23.7;;;;;;;3.2;75.3;99680;;;;
2022/01/14 04:53:57;;;;;;;18.6;23.7;;;;;;;3.2;75.1;99680;;;;
2022/01/14 05:03:58;;;;;;;21.1;26.1;;;;;;;3.1;75.4;99670;;;;
2022/01/14 05:13:57;;;;;;;21.1;26.1;;;;;;;3.1;75.7;99660;;;;
2022/01/14 05:23:57;;;;;;;21.1;26.1;;;;;;;3;75.6;99660;;;;
2022/01/14 05:34:57;;;;;;;22.4;26;;;;;;;3;75.7;99650;;;;
2022/01/14 05:44:57;;;;;;;22.4;26;;;;;;;3;75.9;99650;;;;
2022/01/14 05:54:57;;;;;;;22.4;26;;;;;;;2.9;76.1;99620;;;;
2022/01/14 06:04:57;;;;;;;24.7;28.9;;;;;;;2.9;76.1;99610;;;;
2022/01/14 06:15:57;;;;;;;24.7;28.9;;;;;;;2.9;76;99600;;;;
2022/01/14 06:26:57;;;;;;;24.7;28.9;;;;;;;2.9;76;99600;;;;
2022/01/14 06:37:59;;;;;;;23.3;31.9;;;;;;;2.9;75.9;99590;;;;
2022/01/14 06:47:57;;;;;;;23.3;31.9;;;;;;;2.9;76.1;99620;;;;
2022/01/14 06:57:57;;;;;;;23.3;31.9;;;;;;;2.9;75.9;99620;;;;
2022/01/14 07:08:57;;;;;;;20.8;24.6;;;;;;;2.9;76;99620;;;;
2022/01/14 07:18:57;;;;;;;20.8;24.6;;;;;;;2.8;76.3;99600;;;;
2022/01/14 07:29:57;;;;;;;20.7;27;;;;;;;2.7;76.6;99630;;;;
2022/01/14 07:39:57;;;;;;;20.7;27;;;;;;;2.8;76.8;99620;;;;
2022/01/14 07:50:57;;;;;;;20.7;27;;;;;;;2.7;77.3;99660;;;;
2022/01/14 08:00:57;;;;;;;30.1;36.8;;;;;;;2.7;77.2;99630;;;;
2022/01/14 08:10:58;;;;;;;30.1;36.8;;;;;;;2.7;77;99630;;;;
2022/01/14 08:21:57;;;;;;;30.1;36.8;;;;;;;2.7;76.7;99610;;;;
2022/01/14 08:32:57;;;;;;;30.1;39.5;;;;;;;2.8;76.4;99610;;;;
2022/01/14 08:42:57;;;;;;;30.1;39.5;;;;;;;2.8;76.1;99570;;;;
2022/01/14 08:54:02;;;;;;;30.1;39.5;;;;;;;3;75.7;99560;;;;
2022/01/14 09:03:57;;;;;;;21.4;24.2;;;;;;;3;75.7;99560;;;;
2022/01/14 09:13:57;;;;;;;21.4;24.2;;;;;;;2.9;76.2;99570;;;;
2022/01/14 09:24:03;;;;;;;21.4;24.2;;;;;;;3.1;76.1;99550;;;;
2022/01/14 09:34:57;;;;;;;16.8;20;;;;;;;3.1;75.9;99530;;;;
2022/01/14 09:44:57;;;;;;;16.8;20;;;;;;;3.2;75.9;99520;;;;
2022/01/14 09:54:57;;;;;;;16.8;20;;;;;;;3.2;75.9;99500;;;;
2022/01/14 10:04:57;;;;;;;17.2;22.7;;;;;;;3.2;75.7;99480;;;;
2022/01/14 10:14:57;;;;;;;17.2;22.7;;;;;;;3.3;74.9;99480;;;;
2022/01/14 10:24:57;;;;;;;17.2;22.7;;;;;;;3.4;74.7;99450;;;;
2022/01/14 10:35:57;;;;;;;18.2;23.8;;;;;;;3.5;74.1;99440;;;;
2022/01/14 10:46:57;;;;;;;18.2;23.8;;;;;;;3.6;73.7;99450;;;;
2022/01/14 10:57:58;;;;;;;18.2;23.8;;;;;;;3.8;73.7;99430;;;;
2022/01/14 11:08:57;;;;;;;18.4;21.2;;;;;;;4;73.4;99400;;;;
2022/01/14 11:19:58;;;;;;;18.4;21.2;;;;;;;4.1;73.9;99370;;;;
2022/01/14 11:30:57;;;;;;;18.7;23.3;;;;;;;4.3;73.8;99340;;;;
2022/01/14 11:41:57;;;;;;;18.7;23.3;;;;;;;4.4;73.6;99360;;;;
2022/01/14 11:52:58;;;;;;;18.7;23.3;;;;;;;4.7;73;99340;;;;
2022/01/14 12:02:57;;;;;;;16.6;19.6;;;;;;;4.8;72.8;99340;;;;
2022/01/14 12:14:01;;;;;;;16.6;19.6;;;;;;;4.9;72.4;99330;;;;
2022/01/14 12:23:57;;;;;;;16.6;19.6;;;;;;;4.7;73.1;99320;;;;
2022/01/14 12:33:58;;;;;;;14.6;17.3;;;;;;;4.8;73.3;99310;;;;
2022/01/14 12:43:58;;;;;;;14.6;17.3;;;;;;;4.7;73.8;99300;;;;
2022/01/14 12:53:57;;;;;;;14.6;17.3;;;;;;;4.8;73.4;99300;;;;
2022/01/14 13:03:57;;;;;;;13.8;18.8;;;;;;;4.9;72.9;99310;;;;
2022/01/14 13:13:57;;;;;;;13.8;18.8;;;;;;;4.9;72.6;99350;;;;
2022/01/14 13:24:57;;;;;;;13.8;18.8;;;;;;;4.9;72.6;99360;;;;
2022/01/14 13:34:58;;;;;;;15.9;19.1;;;;;;;4.8;72.8;99350;;;;
2022/01/14 13:46:00;;;;;;;15.9;19.1;;;;;;;4.8;72.5;99360;;;;
2022/01/14 13:55:57;;;;;;;15.9;19.1;;;;;;;4.8;72.8;99360;;;;
2022/01/14 14:07:03;;;;;;;17.6;21.7;;;;;;;4.7;73.3;99380;;;;
2022/01/14 14:17:57;;;;;;;17.6;21.7;;;;;;;4.6;73.6;99370;;;;
2022/01/14 14:27:58;;;;;;;17.6;21.7;;;;;;;4.5;74.8;99370;;;;
2022/01/14 14:37:58;;;;;;;20.6;24;;;;;;;4.4;76.4;99350;;;;
2022/01/14 14:47:57;;;;;;;20.6;24;;;;;;;4.4;76.5;99360;;;;
2022/01/14 14:58:58;;;;;;;21.8;25;;;;;;;4.4;76.6;99360;;;;
2022/01/14 15:09:57;;;;;;;21.8;25;;;;;;;4.5;76.2;99370;;;;
2022/01/14 15:20:57;;;;;;;21.8;25;;;;;;;4.5;77;99370;;;;
2022/01/14 15:31:57;;;;;;;20.4;23.8;;;;;;;4.4;78.1;99380;;;;
2022/01/14 15:42:58;;;;;;;20.4;23.8;;;;;;;4.3;79.1;99380;;;;
2022/01/14 15:53:57;;;;;;;20.4;23.8;;;;;;;4.2;79.8;99410;;;;
2022/01/14 16:03:58;;;;;;;19.3;22;;;;;;;4.3;79.7;99400;;;;
2022/01/14 16:14:09;;;;;;;19.3;22;;;;;;;4.3;79.9;99400;;;;
2022/01/14 16:23:58;;;;;;;19.3;22;;;;;;;4.3;79.6;99400;;;;
2022/01/14 16:33:58;;;;;;;21.5;25.5;;;;;;;4.4;79.7;99410;;;;
2022/01/14 16:43:59;;;;;;;21.5;25.5;;;;;;;4.3;80;99420;;;;
2022/01/14 16:54:58;;;;;;;21.5;25.5;;;;;;;4.4;79.8;99430;;;;
2022/01/14 17:04:58;;;;;;;21.6;24.5;;;;;;;4.3;80.5;99420;;;;
2022/01/14 17:15:58;;;;;;;21.6;24.5;;;;;;;4.3;81.1;99430;;;;
2022/01/14 17:26:58;;;;;;;21.6;24.5;;;;;;;4.4;80.6;99450;;;;
2022/01/14 17:36:58;;;;;;;20.6;23.7;;;;;;;4.3;80.3;99440;;;;
2022/01/14 17:46:58;;;;;;;20.6;23.7;;;;;;;4.4;79.7;99440;;;;
2022/01/14 17:56:58;;;;;;;20.6;23.7;;;;;;;4.5;80.1;99450;;;;
2022/01/14 18:07:58;;;;;;;16.9;18.8;;;;;;;4.4;80.7;99440;;;;
2022/01/14 18:28:58;;;;;;;19.4;23.7;;;;;;;4.5;80;99450;;;;
2022/01/14 18:38:58;;;;;;;19.4;23.7;;;;;;;4.5;79.5;99450;;;;
2022/01/14 18:49:58;;;;;;;19.4;23.7;;;;;;;4.5;80.4;99460;;;;
2022/01/14 18:59:58;;;;;;;17.9;20.5;;;;;;;4.3;81.3;99470;;;;
2022/01/14 19:09:58;;;;;;;17.9;20.5;;;;;;;4.3;81.8;99490;;;;
2022/01/14 19:20:58;;;;;;;17.9;20.5;;;;;;;4.2;82.5;99500;;;;
2022/01/14 19:30:58;;;;;;;19.6;23.2;;;;;;;4.1;82.9;99490;;;;
2022/01/14 19:41:58;;;;;;;19.6;23.2;;;;;;;4;82.3;99500;;;;
2022/01/14 19:52:58;;;;;;;19.6;23.2;;;;;;;4.1;81.8;99530;;;;
2022/01/14 20:03:58;;;;;;;18.3;21.7;;;;;;;4.1;81;99540;;;;
2022/01/14 20:13:58;;;;;;;18.3;21.7;;;;;;;4.1;81;99540;;;;
2022/01/14 20:23:58;;;;;;;18.3;21.7;;;;;;;4.2;80.7;99550;;;;
2022/01/14 20:34:58;;;;;;;16.9;22.7;;;;;;;4.2;80.6;99560;;;;
2022/01/14 20:45:58;;;;;;;16.9;22.7;;;;;;;4.2;79.7;99580;;;;
2022/01/14 20:56:58;;;;;;;16.9;22.7;;;;;;;4.2;80.2;99570;;;;
2022/01/14 21:07:58;;;;;;;20.2;28.2;;;;;;;4;80.3;99580;;;;
2022/01/14 21:17:58;;;;;;;20.2;28.2;;;;;;;3.9;80.2;99590;;;;
2022/01/14 21:27:58;;;;;;;19.3;23.7;;;;;;;3.8;79.6;99590;;;;
2022/01/14 21:38:59;;;;;;;19.3;23.7;;;;;;;3.8;78.7;99610;;;;
2022/01/14 21:48:58;;;;;;;19.3;23.7;;;;;;;3.7;79;99620;;;;
2022/01/14 21:58:59;;;;;;;12.9;18.2;;;;;;;3.8;78.7;99620;;;;
2022/01/14 22:10:00;;;;;;;12.9;18.2;;;;;;;3.7;79.1;99610;;;;
2022/01/14 22:20:58;;;;;;;12.9;18.2;;;;;;;3.6;79.7;99620;;;;
2022/01/14 22:30:58;;;;;;;17.4;26.3;;;;;;;3.6;78.8;99630;;;;
2022/01/14 22:40:58;;;;;;;17.4;26.3;;;;;;;3.6;78.1;99630;;;;
2022/01/14 22:50:58;;;;;;;17.4;26.3;;;;;;;3.4;77.8;99620;;;;
2022/01/14 23:00:59;;;;;;;14.1;17.1;;;;;;;3.4;77.5;99630;;;;
2022/01/14 23:11:59;;;;;;;14.1;17.1;;;;;;;3.4;77.6;99640;;;;
2022/01/14 23:22:58;;;;;;;14.1;17.1;;;;;;;3.3;77.1;99650;;;;
2022/01/14 23:32:58;;;;;;;13.5;18.8;;;;;;;3.3;77.1;99650;;;;
2022/01/14 23:43:09;;;;;;;13.5;18.8;;;;;;;3;77.3;99640;;;;
2022/01/14 23:53:58;;;;;;;13.5;18.8;;;;;;;2.6;78.1;99650;;;;
